createdAt,value
2023-04-23T00:01:55.590Z,99.90
2023-04-23T00:04:23.693Z,99.90
2023-04-23T00:06:52.372Z,99.90
2023-04-23T00:09:19.787Z,99.90
2023-04-23T00:11:47.270Z,99.90
2023-04-23T00:14:14.519Z,99.90
2023-04-23T00:16:41.621Z,99.90
2023-04-23T00:19:08.584Z,99.90
2023-04-23T00:21:35.458Z,99.90
2023-04-23T00:24:02.314Z,99.90
2023-04-23T00:26:29.194Z,99.90
2023-04-23T00:28:56.069Z,99.90
2023-04-23T00:31:24.231Z,99.90
2023-04-23T00:33:51.485Z,99.90
2023-04-23T00:36:21.313Z,99.90
2023-04-23T00:38:48.170Z,99.90
2023-04-23T00:41:15.345Z,99.90
2023-04-23T00:43:42.236Z,99.90
2023-04-23T00:46:09.963Z,99.90
2023-04-23T00:48:37.392Z,99.90
2023-04-23T00:51:05.718Z,99.90
2023-04-23T00:53:34.593Z,99.90
2023-04-23T00:56:04.213Z,99.90
2023-04-23T00:58:33.164Z,99.90
2023-04-23T01:01:01.931Z,99.90
2023-04-23T01:03:29.868Z,99.90
2023-04-23T01:05:57.027Z,99.90
2023-04-23T01:08:25.928Z,99.90
2023-04-23T01:10:53.799Z,99.90
2023-04-23T01:13:22.550Z,99.90
2023-04-23T01:15:49.648Z,99.90
2023-04-23T01:18:16.607Z,99.90
2023-04-23T01:20:43.844Z,99.90
2023-04-23T01:23:11.865Z,99.90
2023-04-23T01:25:38.826Z,99.90
2023-04-23T01:28:09.440Z,99.90
2023-04-23T01:30:36.486Z,99.90
2023-04-23T01:33:06.309Z,99.90
2023-04-23T01:35:35.011Z,99.90
2023-04-23T01:38:03.968Z,99.90
2023-04-23T01:40:31.102Z,99.90
2023-04-23T01:42:58.288Z,99.90
2023-04-23T01:45:25.373Z,99.90
2023-04-23T01:47:52.574Z,99.90
2023-04-23T01:50:21.836Z,99.90
2023-04-23T01:52:48.805Z,99.90
2023-04-23T01:55:15.826Z,99.90
2023-04-23T01:57:43.331Z,99.90
2023-04-23T02:00:12.170Z,99.90
2023-04-23T02:02:41.006Z,99.90
2023-04-23T02:05:18.964Z,99.90
2023-04-23T02:07:48.407Z,99.90
2023-04-23T02:10:15.973Z,99.90
2023-04-23T02:12:46.391Z,99.90
2023-04-23T02:15:15.780Z,99.90
2023-04-23T02:17:42.683Z,99.90
2023-04-23T02:21:14.624Z,99.90
2023-04-23T02:23:41.457Z,99.90
2023-04-23T02:26:08.327Z,99.90
2023-04-23T02:28:35.263Z,99.90
2023-04-23T02:31:02.142Z,99.90
2023-04-23T02:33:28.927Z,99.90
2023-04-23T02:35:55.797Z,99.90
2023-04-23T02:38:23.345Z,99.90
2023-04-23T02:40:50.335Z,99.90
2023-04-23T02:43:18.331Z,99.90
2023-04-23T02:45:45.324Z,99.90
2023-04-23T02:48:12.242Z,99.90
2023-04-23T02:50:39.234Z,99.90
2023-04-23T02:53:06.072Z,99.90
2023-04-23T02:55:32.953Z,99.90
2023-04-23T02:58:02.811Z,99.90
2023-04-23T03:00:29.851Z,99.90
2023-04-23T03:02:56.779Z,99.90
2023-04-23T03:05:23.927Z,99.90
2023-04-23T03:07:50.897Z,99.90
2023-04-23T03:10:18.775Z,99.90
2023-04-23T03:12:45.917Z,99.90
2023-04-23T03:15:12.768Z,99.90
2023-04-23T03:17:39.650Z,99.90
2023-04-23T03:20:08.792Z,99.90
2023-04-23T03:22:36.138Z,99.90
2023-04-23T03:25:03.948Z,99.90
2023-04-23T03:27:30.732Z,99.90
2023-04-23T03:29:57.719Z,99.90
2023-04-23T03:32:24.883Z,99.90
2023-04-23T03:34:51.742Z,99.90
2023-04-23T03:37:18.595Z,99.90
2023-04-23T03:39:45.419Z,99.90
2023-04-23T03:42:12.229Z,99.90
2023-04-23T03:44:39.132Z,99.90
2023-04-23T03:47:06.033Z,99.90
2023-04-23T03:49:32.998Z,99.90
2023-04-23T03:51:59.761Z,99.90
2023-04-23T03:54:28.230Z,99.90
2023-04-23T03:56:55.104Z,99.90
2023-04-23T03:59:22.884Z,99.90
2023-04-23T04:01:49.700Z,99.90
2023-04-23T04:04:17.836Z,99.90
2023-04-23T04:06:44.910Z,99.90
2023-04-23T04:09:11.710Z,99.90
2023-04-23T04:11:38.587Z,99.90
2023-04-23T04:14:05.522Z,99.90
2023-04-23T04:16:32.423Z,99.90
2023-04-23T04:18:59.252Z,99.90
2023-04-23T04:21:26.227Z,99.90
2023-04-23T04:23:53.685Z,99.90
2023-04-23T04:26:20.466Z,99.90
2023-04-23T04:28:47.295Z,99.90
2023-04-23T04:31:16.019Z,99.90
2023-04-23T04:33:43.364Z,99.90
2023-04-23T04:36:10.120Z,99.90
2023-04-23T04:38:39.909Z,99.90
2023-04-23T04:41:07.718Z,99.90
2023-04-23T04:43:34.603Z,99.90
2023-04-23T04:46:01.433Z,99.90
2023-04-23T04:48:28.288Z,99.90
2023-04-23T04:50:55.449Z,99.90
2023-04-23T04:53:23.091Z,99.90
2023-04-23T04:55:50.298Z,99.90
2023-04-23T04:58:17.131Z,99.90
2023-04-23T05:00:44.628Z,99.90
2023-04-23T05:03:14.116Z,99.90
2023-04-23T05:05:41.316Z,99.90
2023-04-23T05:08:08.759Z,99.90
2023-04-23T05:10:35.567Z,99.90
2023-04-23T05:13:02.373Z,99.90
2023-04-23T05:15:29.292Z,99.90
2023-04-23T05:17:56.618Z,99.90
2023-04-23T05:20:23.530Z,99.90
2023-04-23T05:22:50.555Z,99.90
2023-04-23T05:25:17.408Z,99.90
2023-04-23T05:27:44.281Z,99.90
2023-04-23T05:30:11.506Z,99.90
2023-04-23T05:32:39.296Z,99.90
2023-04-23T05:35:07.152Z,99.90
2023-04-23T05:37:34.161Z,99.90
2023-04-23T05:40:02.681Z,99.90
2023-04-23T05:42:29.539Z,99.90
2023-04-23T05:44:56.381Z,99.90
2023-04-23T05:47:23.905Z,99.90
2023-04-23T05:49:50.934Z,99.90
2023-04-23T05:52:18.723Z,99.90
2023-04-23T05:54:45.571Z,99.90
2023-04-23T05:57:12.700Z,99.90
2023-04-23T05:59:39.461Z,99.90
2023-04-23T06:02:07.330Z,99.90
2023-04-23T06:04:34.465Z,99.90
2023-04-23T06:07:01.507Z,99.90
2023-04-23T06:09:28.342Z,99.90
2023-04-23T06:11:55.388Z,99.90
2023-04-23T06:14:22.283Z,99.90
2023-04-23T06:16:49.099Z,99.90
2023-04-23T06:19:16.194Z,99.90
2023-04-23T06:21:43.134Z,99.90
2023-04-23T06:24:09.935Z,99.90
2023-04-23T06:26:42.806Z,99.90
2023-04-23T06:29:09.722Z,99.90
2023-04-23T06:31:36.614Z,99.90
2023-04-23T06:34:03.733Z,99.90
2023-04-23T06:36:30.518Z,99.90
2023-04-23T06:38:57.314Z,99.90
2023-04-23T06:41:24.180Z,99.90
2023-04-23T06:43:50.980Z,99.90
2023-04-23T06:46:17.968Z,99.90
2023-04-23T06:48:44.891Z,99.90
2023-04-23T06:51:11.776Z,99.90
2023-04-23T06:53:38.770Z,99.90
2023-04-23T06:56:06.591Z,99.90
2023-04-23T06:58:33.836Z,99.90
2023-04-23T07:01:01.684Z,99.90
2023-04-23T07:03:29.077Z,99.90
2023-04-23T07:05:55.900Z,99.90
2023-04-23T07:08:22.757Z,99.90
2023-04-23T07:10:49.694Z,99.90
2023-04-23T07:13:17.452Z,99.90
2023-04-23T07:15:44.277Z,99.90
2023-04-23T07:18:11.262Z,99.90
2023-04-23T07:20:38.205Z,99.90
2023-04-23T07:23:05.470Z,99.90
2023-04-23T07:25:32.665Z,99.90
2023-04-23T07:27:59.527Z,99.90
2023-04-23T07:30:27.681Z,99.90
2023-04-23T07:32:55.613Z,99.90
2023-04-23T07:35:22.622Z,99.90
2023-04-23T07:37:53.774Z,99.90
2023-04-23T07:40:23.100Z,99.90
2023-04-23T07:42:53.093Z,99.90
2023-04-23T07:45:20.260Z,99.90
2023-04-23T07:47:50.026Z,99.90
2023-04-23T07:50:16.984Z,98.90
2023-04-23T07:52:43.842Z,98.50
2023-04-23T07:55:10.669Z,95.90
2023-04-23T07:57:37.554Z,95.10
2023-04-23T08:00:09.314Z,96.30
2023-04-23T08:02:36.293Z,95.60
2023-04-23T08:05:03.544Z,95.20
2023-04-23T08:07:30.480Z,93.60
2023-04-23T08:10:02.775Z,89.00
2023-04-23T08:12:30.773Z,77.90
2023-04-23T08:14:58.225Z,70.00
2023-04-23T08:17:25.288Z,70.60
2023-04-23T08:19:52.148Z,67.20
2023-04-23T08:22:20.240Z,64.20
2023-04-23T08:24:47.184Z,62.40
2023-04-23T08:27:14.212Z,59.60
2023-04-23T08:29:41.272Z,59.00
2023-04-23T08:32:08.418Z,58.90
2023-04-23T08:34:35.861Z,57.40
2023-04-23T08:37:02.734Z,56.40
2023-04-23T08:39:33.302Z,55.10
2023-04-23T08:42:11.825Z,55.40
2023-04-23T08:44:42.468Z,55.50
2023-04-23T08:47:14.980Z,57.00
2023-04-23T08:49:45.110Z,58.10
2023-04-23T08:52:26.152Z,57.40
2023-04-23T08:54:55.123Z,55.70
2023-04-23T08:57:22.826Z,54.30
2023-04-23T08:59:50.357Z,54.00
2023-04-23T09:02:18.006Z,55.20
2023-04-23T09:04:46.180Z,54.80
2023-04-23T09:07:13.563Z,54.60
2023-04-23T09:09:41.338Z,52.90
2023-04-23T09:12:09.370Z,54.30
2023-04-23T09:14:36.742Z,54.30
2023-04-23T09:17:04.105Z,53.60
2023-04-23T09:19:32.519Z,55.10
2023-04-23T09:22:02.154Z,52.10
2023-04-23T09:24:30.138Z,52.50
2023-04-23T09:26:58.432Z,53.00
2023-04-23T09:29:26.102Z,51.60
2023-04-23T09:31:55.402Z,51.70
2023-04-23T09:34:24.591Z,52.70
2023-04-23T09:36:53.268Z,52.70
2023-04-23T09:39:23.147Z,51.10
2023-04-23T09:41:53.610Z,52.00
2023-04-23T09:44:22.872Z,51.50
2023-04-23T09:46:50.064Z,51.40
2023-04-23T09:49:17.220Z,49.60
2023-04-23T09:51:49.281Z,50.10
2023-04-23T09:54:18.885Z,50.00
2023-04-23T09:56:50.770Z,49.30
2023-04-23T09:59:36.002Z,49.60
2023-04-23T10:02:07.894Z,49.90
2023-04-23T10:04:35.572Z,50.00
2023-04-23T10:07:18.056Z,49.60
2023-04-23T10:09:47.816Z,48.50
2023-04-23T10:14:46.801Z,46.70
2023-04-23T10:17:14.136Z,46.30
2023-04-23T10:19:43.625Z,47.00
2023-04-23T10:22:19.306Z,47.10
2023-04-23T10:24:49.666Z,46.50
2023-04-23T10:27:30.843Z,45.90
2023-04-23T10:30:06.699Z,45.90
2023-04-23T10:32:38.608Z,45.80
2023-04-23T10:35:07.419Z,44.50
2023-04-23T10:37:35.974Z,43.90
2023-04-23T10:40:12.900Z,41.20
2023-04-23T10:42:44.406Z,43.10
2023-04-23T10:45:25.161Z,42.80
2023-04-23T10:47:55.534Z,44.10
2023-04-23T10:50:25.228Z,43.40
2023-04-23T10:52:57.204Z,42.60
2023-04-23T10:55:29.725Z,42.90
2023-04-23T10:58:01.691Z,43.50
2023-04-23T11:00:48.562Z,42.30
2023-04-23T11:03:43.002Z,42.10
2023-04-23T11:06:15.792Z,40.50
2023-04-23T11:08:56.859Z,41.90
2023-04-23T11:11:40.422Z,40.00
2023-04-23T11:14:16.667Z,40.30
2023-04-23T11:16:44.515Z,41.00
2023-04-23T11:19:17.267Z,40.00
2023-04-23T11:22:01.114Z,39.30
2023-04-23T11:24:42.932Z,39.80
2023-04-23T11:27:15.977Z,39.80
2023-04-23T11:29:44.844Z,39.40
2023-04-23T11:32:14.218Z,39.30
2023-04-23T11:34:45.064Z,40.10
2023-04-23T11:37:13.129Z,39.30
2023-04-23T11:39:45.538Z,39.50
2023-04-23T11:42:14.290Z,38.60
2023-04-23T11:44:42.373Z,38.90
2023-04-23T11:47:11.340Z,38.10
2023-04-23T11:49:43.415Z,38.90
2023-04-23T11:52:11.873Z,39.20
2023-04-23T11:54:41.530Z,38.70
2023-04-23T11:57:12.378Z,37.40
2023-04-23T11:59:39.571Z,36.60
2023-04-23T12:02:06.692Z,36.50
2023-04-23T12:04:38.114Z,35.00
2023-04-23T12:07:23.017Z,36.10
2023-04-23T12:10:00.253Z,35.30
2023-04-23T12:12:35.464Z,34.90
2023-04-23T12:15:07.252Z,35.30
2023-04-23T12:17:35.219Z,35.10
2023-04-23T12:20:07.236Z,35.90
2023-04-23T12:22:34.282Z,34.50
2023-04-23T12:25:08.422Z,35.10
2023-04-23T12:27:40.417Z,35.40
2023-04-23T12:30:11.763Z,36.60
2023-04-23T12:32:39.045Z,36.00
2023-04-23T12:35:11.377Z,35.70
2023-04-23T12:37:38.358Z,35.70
2023-04-23T12:40:07.184Z,36.10
2023-04-23T12:42:35.430Z,35.30
2023-04-23T12:45:07.644Z,37.10
2023-04-23T12:47:54.521Z,35.10
2023-04-23T12:50:26.747Z,35.80
2023-04-23T12:52:53.623Z,36.60
2023-04-23T12:55:20.455Z,36.10
2023-04-23T13:01:11.782Z,34.60
2023-04-23T13:03:38.898Z,35.10
2023-04-23T13:06:12.592Z,35.00
2023-04-23T13:08:42.530Z,36.20
2023-04-23T13:12:09.915Z,34.60
2023-04-23T13:14:42.212Z,35.40
2023-04-23T13:17:09.026Z,36.00
2023-04-23T13:19:41.750Z,34.10
2023-04-23T13:25:42.920Z,35.30
2023-04-23T13:28:09.790Z,35.40
2023-04-23T13:30:36.627Z,35.50
2023-04-23T13:33:03.680Z,35.80
2023-04-23T13:35:30.604Z,35.60
2023-04-23T13:37:58.648Z,34.80
2023-04-23T13:40:26.274Z,35.00
2023-04-23T13:42:55.053Z,34.10
2023-04-23T13:45:22.014Z,33.80
2023-04-23T13:47:48.939Z,33.80
2023-04-23T13:50:16.001Z,32.70
2023-04-23T13:52:48.673Z,32.30
2023-04-23T13:55:16.202Z,33.60
2023-04-23T13:57:43.141Z,33.20
2023-04-23T14:00:19.191Z,33.90
2023-04-23T14:03:14.798Z,33.00
2023-04-23T14:05:41.929Z,34.40
2023-04-23T14:08:37.260Z,35.00
2023-04-23T14:11:15.225Z,35.40
2023-04-23T14:13:42.236Z,35.50
2023-04-23T14:16:09.123Z,35.90
2023-04-23T14:18:49.060Z,35.80
2023-04-23T14:21:22.651Z,35.60
2023-04-23T14:23:55.745Z,34.50
2023-04-23T14:29:40.708Z,34.40
2023-04-23T14:32:08.033Z,35.10
2023-04-23T14:34:37.811Z,34.40
2023-04-23T14:37:05.250Z,35.80
2023-04-23T14:39:33.514Z,35.70
2023-04-23T14:42:01.063Z,35.30
2023-04-23T14:44:27.892Z,36.10
2023-04-23T14:46:55.837Z,36.40
2023-04-23T14:49:22.850Z,36.60
2023-04-23T14:51:54.000Z,37.40
2023-04-23T14:54:21.798Z,37.70
2023-04-23T14:56:48.727Z,38.00
2023-04-23T14:59:16.306Z,37.80
2023-04-23T15:01:43.782Z,38.30
2023-04-23T15:04:11.663Z,37.40
2023-04-23T15:06:41.160Z,37.50
2023-04-23T15:09:08.232Z,37.30
2023-04-23T15:11:35.178Z,36.70
2023-04-23T15:14:03.903Z,37.00
2023-04-23T15:19:06.435Z,36.70
2023-04-23T15:21:33.435Z,35.90
2023-04-23T15:24:00.268Z,36.40
2023-04-23T15:26:29.293Z,36.30
2023-04-23T15:28:56.377Z,36.00
2023-04-23T15:31:23.436Z,35.60
2023-04-23T15:33:54.190Z,36.10
2023-04-23T15:36:22.315Z,36.80
2023-04-23T15:38:49.654Z,38.30
2023-04-23T15:41:16.609Z,38.50
2023-04-23T15:43:43.574Z,39.30
2023-04-23T15:46:11.516Z,40.80
2023-04-23T15:48:38.438Z,41.80
2023-04-23T15:51:08.042Z,43.00
2023-04-23T15:53:34.844Z,43.40
2023-04-23T15:56:05.418Z,44.30
2023-04-23T15:58:37.947Z,45.30
2023-04-23T16:01:07.269Z,45.40
2023-04-23T16:03:34.735Z,46.00
2023-04-23T16:06:02.233Z,45.50
2023-04-23T16:08:29.212Z,44.60
2023-04-23T16:10:58.142Z,44.20
2023-04-23T16:13:27.842Z,43.50
2023-04-23T16:15:54.955Z,42.10
2023-04-23T16:18:21.870Z,42.20
2023-04-23T16:20:48.962Z,41.30
2023-04-23T16:23:16.336Z,41.70
2023-04-23T16:25:44.327Z,41.30
2023-04-23T16:28:13.829Z,40.80
2023-04-23T16:30:40.839Z,41.50
2023-04-23T16:33:07.942Z,41.30
2023-04-23T16:35:36.044Z,41.50
2023-04-23T16:38:02.880Z,42.30
2023-04-23T16:40:30.838Z,42.00
2023-04-23T16:42:57.768Z,43.20
2023-04-23T16:45:24.730Z,45.40
2023-04-23T16:47:51.571Z,49.30
2023-04-23T16:50:18.620Z,49.40
2023-04-23T16:52:45.486Z,50.90
2023-04-23T16:55:12.351Z,53.30
2023-04-23T16:57:39.220Z,54.30
2023-04-23T17:00:06.809Z,53.90
2023-04-23T17:02:34.659Z,57.00
2023-04-23T17:05:02.030Z,56.10
2023-04-23T17:07:29.396Z,56.30
2023-04-23T17:09:56.607Z,56.90
2023-04-23T17:12:23.494Z,56.40
2023-04-23T17:14:50.538Z,58.90
2023-04-23T17:17:17.409Z,57.90
2023-04-23T17:19:45.822Z,56.70
2023-04-23T17:22:12.771Z,56.60
2023-04-23T17:24:39.818Z,57.50
2023-04-23T17:27:15.826Z,56.20
2023-04-23T17:29:44.183Z,56.60
2023-04-23T17:32:11.611Z,57.90
2023-04-23T17:34:49.371Z,58.10
2023-04-23T17:37:18.408Z,56.90
2023-04-23T17:39:45.256Z,57.60
2023-04-23T17:42:13.495Z,56.70
2023-04-23T17:44:41.158Z,58.00
2023-04-23T17:47:10.251Z,58.70
2023-04-23T17:49:37.152Z,59.90
2023-04-23T17:52:08.988Z,59.80
2023-04-23T17:54:43.229Z,58.90
2023-04-23T17:57:19.825Z,59.90
2023-04-23T17:59:46.734Z,60.00
2023-04-23T18:02:14.052Z,60.30
2023-04-23T18:04:41.142Z,62.80
2023-04-23T18:07:07.995Z,63.20
2023-04-23T18:09:37.036Z,62.20
2023-04-23T18:12:05.225Z,63.90
2023-04-23T18:14:32.271Z,63.40
2023-04-23T18:16:59.480Z,63.60
2023-04-23T18:19:26.882Z,65.00
2023-04-23T18:21:54.928Z,65.10
2023-04-23T18:24:21.909Z,64.10
2023-04-23T18:26:52.046Z,64.70
2023-04-23T18:29:19.053Z,63.90
2023-04-23T18:31:46.953Z,65.10
2023-04-23T18:34:18.249Z,65.10
2023-04-23T18:36:50.128Z,64.80
2023-04-23T18:39:17.003Z,66.90
2023-04-23T18:41:44.379Z,66.30
2023-04-23T18:44:13.330Z,67.50
2023-04-23T18:46:41.334Z,67.20
2023-04-23T18:49:08.459Z,66.60
2023-04-23T18:51:44.458Z,67.30
2023-04-23T18:54:15.646Z,66.60
2023-04-23T18:56:42.480Z,66.70
2023-04-23T18:59:09.369Z,66.40
2023-04-23T19:01:36.606Z,67.80
2023-04-23T19:04:03.685Z,67.00
2023-04-23T19:06:31.324Z,67.20
2023-04-23T19:08:59.505Z,66.70
2023-04-23T19:11:30.285Z,67.60
2023-04-23T19:13:57.248Z,67.10
2023-04-23T19:16:24.219Z,67.30
2023-04-23T19:18:51.412Z,67.30
2023-04-23T19:21:24.827Z,68.40
2023-04-23T19:23:53.902Z,68.10
2023-04-23T19:26:21.168Z,67.80
2023-04-23T19:28:49.224Z,67.90
2023-04-23T19:31:16.564Z,67.30
2023-04-23T19:33:45.479Z,66.40
2023-04-23T19:36:12.842Z,67.90
2023-04-23T19:38:39.946Z,68.20
2023-04-23T19:41:07.894Z,66.30
2023-04-23T19:43:35.004Z,68.10
2023-04-23T19:46:02.446Z,67.80
2023-04-23T19:48:29.614Z,67.90
2023-04-23T19:54:06.661Z,68.10
2023-04-23T19:56:33.637Z,68.30
2023-04-23T19:59:00.660Z,68.80
2023-04-23T20:01:30.517Z,68.20
2023-04-23T20:03:59.137Z,68.60
2023-04-23T20:06:26.650Z,68.80
2023-04-23T20:09:06.875Z,68.40
2023-04-23T20:11:38.141Z,69.00
2023-04-23T20:14:06.003Z,68.10
2023-04-23T20:16:33.292Z,68.80
2023-04-23T20:19:01.882Z,68.20
2023-04-23T20:21:31.869Z,68.40
2023-04-23T20:23:59.786Z,69.50
2023-04-23T20:26:27.076Z,69.40
2023-04-23T20:28:53.991Z,69.80
2023-04-23T20:31:21.463Z,69.90
2023-04-23T20:33:48.374Z,70.60
2023-04-23T20:36:16.418Z,70.70
2023-04-23T20:38:43.352Z,69.90
2023-04-23T20:41:11.125Z,71.10
2023-04-23T20:43:41.151Z,71.30
2023-04-23T20:46:10.482Z,70.90
2023-04-23T20:48:39.346Z,70.70
2023-04-23T20:51:09.945Z,71.80
2023-04-23T20:53:57.702Z,71.80
2023-04-23T20:56:24.679Z,71.80
2023-04-23T20:58:51.615Z,71.60
2023-04-23T21:01:18.489Z,72.00
2023-04-23T21:03:45.674Z,72.40
2023-04-23T21:06:12.676Z,72.50
2023-04-23T21:08:41.469Z,73.00
2023-04-23T21:11:15.971Z,73.00
2023-04-23T21:13:43.248Z,73.40
2023-04-23T21:16:37.637Z,73.60
2023-04-23T21:19:05.955Z,73.60
2023-04-23T21:21:33.015Z,73.40
2023-04-23T21:24:01.052Z,74.20
2023-04-23T21:26:30.344Z,75.30
2023-04-23T21:28:57.506Z,75.50
2023-04-23T21:31:31.787Z,75.70
2023-04-23T21:33:58.698Z,75.70
2023-04-23T21:36:25.552Z,76.30
2023-04-23T21:38:53.160Z,76.70
2023-04-23T21:41:20.145Z,77.80
2023-04-23T21:43:47.104Z,77.80
2023-04-23T21:46:13.967Z,79.10
2023-04-23T21:48:40.857Z,79.90
2023-04-23T21:51:07.914Z,80.20
2023-04-23T21:53:34.745Z,81.20
2023-04-23T21:56:01.605Z,82.50
2023-04-23T21:58:29.409Z,82.80
2023-04-23T22:00:56.275Z,83.80
2023-04-23T22:03:35.194Z,83.70
2023-04-23T22:06:09.701Z,85.10
2023-04-23T22:08:40.711Z,86.60
2023-04-23T22:11:08.481Z,86.60
2023-04-23T22:13:36.144Z,87.40
2023-04-23T22:16:06.623Z,87.80
2023-04-23T22:18:38.523Z,88.90
2023-04-23T22:21:05.840Z,89.20
2023-04-23T22:23:32.713Z,90.20
2023-04-23T22:25:59.590Z,90.40
2023-04-23T22:28:26.424Z,90.30
2023-04-23T22:31:05.760Z,90.60
2023-04-23T22:33:32.830Z,91.30
2023-04-23T22:36:01.487Z,91.60
2023-04-23T22:38:31.907Z,91.40
2023-04-23T22:40:59.582Z,91.90
2023-04-23T22:43:26.432Z,91.90
2023-04-23T22:45:53.293Z,92.60
2023-04-23T22:48:22.879Z,93.00
2023-04-23T22:50:50.944Z,93.30
2023-04-23T22:53:19.551Z,94.20
2023-04-23T22:55:46.938Z,94.90
2023-04-23T22:58:13.974Z,95.30
2023-04-23T23:00:40.879Z,95.70
2023-04-23T23:03:08.369Z,96.20
2023-04-23T23:05:35.452Z,96.40
2023-04-23T23:08:02.658Z,96.90
2023-04-23T23:10:29.688Z,97.50
2023-04-23T23:12:56.796Z,98.30
2023-04-23T23:15:23.642Z,98.80
2023-04-23T23:17:51.085Z,99.40
2023-04-23T23:20:18.186Z,99.70
2023-04-23T23:22:46.269Z,99.90
2023-04-23T23:25:13.140Z,99.90
2023-04-23T23:27:40.012Z,99.90
2023-04-23T23:30:09.521Z,99.90
2023-04-23T23:32:36.919Z,99.90
2023-04-23T23:35:04.407Z,99.90
2023-04-23T23:37:32.195Z,99.90
2023-04-23T23:39:59.072Z,99.90
2023-04-23T23:42:26.069Z,99.90
2023-04-23T23:44:52.916Z,99.90
2023-04-23T23:47:20.119Z,99.90
2023-04-23T23:49:47.079Z,99.90
2023-04-23T23:52:13.963Z,99.90
2023-04-23T23:54:40.890Z,99.90
2023-04-23T23:57:07.686Z,99.90
2023-04-23T23:59:34.921Z,99.90
